sensor_id;sensor_type;location;lat;lon;timestamp;P1;durP1;ratioP1;P2;durP2;ratioP2
32038;SDS011;18549;42.286;22.688;2023-07-31T00:00:03;9.45;;;4.00;;
32038;SDS011;18549;42.286;22.688;2023-07-31T00:02:30;7.53;;;3.42;;
32038;SDS011;18549;42.286;22.688;2023-07-31T00:04:57;6.97;;;3.78;;
32038;SDS011;18549;42.286;22.688;2023-07-31T00:07:25;6.70;;;4.25;;
32038;SDS011;18549;42.286;22.688;2023-07-31T00:09:52;4.87;;;3.47;;
32038;SDS011;18549;42.286;22.688;2023-07-31T00:12:19;8.02;;;4.30;;
32038;SDS011;18549;42.286;22.688;2023-07-31T00:14:46;8.27;;;4.20;;
32038;SDS011;18549;42.286;22.688;2023-07-31T00:17:12;8.05;;;4.20;;
32038;SDS011;18549;42.286;22.688;2023-07-31T00:19:39;12.23;;;4.78;;
32038;SDS011;18549;42.286;22.688;2023-07-31T00:22:06;11.02;;;4.18;;
32038;SDS011;18549;42.286;22.688;2023-07-31T00:24:34;7.32;;;5.05;;
32038;SDS011;18549;42.286;22.688;2023-07-31T00:27:01;8.07;;;5.00;;
32038;SDS011;18549;42.286;22.688;2023-07-31T00:29:27;8.50;;;4.78;;
32038;SDS011;18549;42.286;22.688;2023-07-31T00:31:54;9.65;;;4.60;;
32038;SDS011;18549;42.286;22.688;2023-07-31T00:34:21;6.95;;;4.40;;
32038;SDS011;18549;42.286;22.688;2023-07-31T00:36:47;7.30;;;5.07;;
32038;SDS011;18549;42.286;22.688;2023-07-31T00:39:14;7.55;;;4.68;;
32038;SDS011;18549;42.286;22.688;2023-07-31T00:41:43;9.40;;;4.35;;
32038;SDS011;18549;42.286;22.688;2023-07-31T00:44:09;10.57;;;5.97;;
32038;SDS011;18549;42.286;22.688;2023-07-31T00:46:36;9.90;;;6.28;;
32038;SDS011;18549;42.286;22.688;2023-07-31T00:49:03;16.73;;;5.82;;
32038;SDS011;18549;42.286;22.688;2023-07-31T00:51:31;7.50;;;5.22;;
32038;SDS011;18549;42.286;22.688;2023-07-31T00:53:59;7.62;;;4.80;;
32038;SDS011;18549;42.286;22.688;2023-07-31T00:56:26;7.10;;;4.25;;
32038;SDS011;18549;42.286;22.688;2023-07-31T00:58:55;8.27;;;4.43;;
32038;SDS011;18549;42.286;22.688;2023-07-31T01:01:22;6.75;;;4.82;;
32038;SDS011;18549;42.286;22.688;2023-07-31T01:03:49;7.28;;;4.37;;
32038;SDS011;18549;42.286;22.688;2023-07-31T01:06:21;7.55;;;4.55;;
32038;SDS011;18549;42.286;22.688;2023-07-31T01:08:57;8.95;;;4.45;;
32038;SDS011;18549;42.286;22.688;2023-07-31T01:11:29;7.70;;;4.62;;
32038;SDS011;18549;42.286;22.688;2023-07-31T01:13:59;9.73;;;4.53;;
32038;SDS011;18549;42.286;22.688;2023-07-31T01:16:26;7.97;;;3.90;;
32038;SDS011;18549;42.286;22.688;2023-07-31T01:18:53;6.03;;;4.57;;
32038;SDS011;18549;42.286;22.688;2023-07-31T01:21:26;7.90;;;4.60;;
32038;SDS011;18549;42.286;22.688;2023-07-31T01:26:55;8.85;;;4.37;;
32038;SDS011;18549;42.286;22.688;2023-07-31T01:29:26;6.18;;;4.30;;
32038;SDS011;18549;42.286;22.688;2023-07-31T01:31:59;6.20;;;4.25;;
32038;SDS011;18549;42.286;22.688;2023-07-31T01:34:28;6.05;;;4.47;;
32038;SDS011;18549;42.286;22.688;2023-07-31T01:36:56;8.85;;;4.47;;
32038;SDS011;18549;42.286;22.688;2023-07-31T01:39:23;8.95;;;4.22;;
32038;SDS011;18549;42.286;22.688;2023-07-31T01:41:50;5.35;;;4.07;;
32038;SDS011;18549;42.286;22.688;2023-07-31T01:44:18;6.22;;;4.10;;
32038;SDS011;18549;42.286;22.688;2023-07-31T01:46:45;5.20;;;4.13;;
32038;SDS011;18549;42.286;22.688;2023-07-31T01:49:12;4.95;;;4.18;;
32038;SDS011;18549;42.286;22.688;2023-07-31T01:51:38;4.22;;;3.70;;
32038;SDS011;18549;42.286;22.688;2023-07-31T01:54:06;11.73;;;5.32;;
32038;SDS011;18549;42.286;22.688;2023-07-31T01:56:33;9.88;;;4.18;;
32038;SDS011;18549;42.286;22.688;2023-07-31T01:59:00;5.47;;;4.62;;
32038;SDS011;18549;42.286;22.688;2023-07-31T02:01:28;11.40;;;4.22;;
32038;SDS011;18549;42.286;22.688;2023-07-31T02:03:55;4.45;;;3.83;;
32038;SDS011;18549;42.286;22.688;2023-07-31T02:06:22;9.48;;;4.37;;
32038;SDS011;18549;42.286;22.688;2023-07-31T02:08:49;6.07;;;4.35;;
32038;SDS011;18549;42.286;22.688;2023-07-31T02:11:16;5.62;;;4.20;;
32038;SDS011;18549;42.286;22.688;2023-07-31T02:13:42;9.48;;;5.18;;
32038;SDS011;18549;42.286;22.688;2023-07-31T02:16:09;5.70;;;4.40;;
32038;SDS011;18549;42.286;22.688;2023-07-31T02:18:37;4.07;;;3.67;;
32038;SDS011;18549;42.286;22.688;2023-07-31T02:21:04;5.32;;;4.30;;
32038;SDS011;18549;42.286;22.688;2023-07-31T02:23:31;4.75;;;4.05;;
32038;SDS011;18549;42.286;22.688;2023-07-31T02:25:58;8.38;;;3.83;;
32038;SDS011;18549;42.286;22.688;2023-07-31T02:28:24;4.50;;;3.62;;
32038;SDS011;18549;42.286;22.688;2023-07-31T02:30:51;6.03;;;4.00;;
32038;SDS011;18549;42.286;22.688;2023-07-31T02:33:18;5.85;;;3.65;;
32038;SDS011;18549;42.286;22.688;2023-07-31T02:35:46;7.93;;;4.47;;
32038;SDS011;18549;42.286;22.688;2023-07-31T02:38:12;10.13;;;4.30;;
32038;SDS011;18549;42.286;22.688;2023-07-31T02:40:40;7.57;;;5.28;;
32038;SDS011;18549;42.286;22.688;2023-07-31T02:43:07;5.35;;;3.70;;
32038;SDS011;18549;42.286;22.688;2023-07-31T02:45:34;5.15;;;3.95;;
32038;SDS011;18549;42.286;22.688;2023-07-31T02:48:00;6.97;;;3.45;;
32038;SDS011;18549;42.286;22.688;2023-07-31T02:50:27;6.87;;;3.55;;
32038;SDS011;18549;42.286;22.688;2023-07-31T02:52:55;4.87;;;3.92;;
32038;SDS011;18549;42.286;22.688;2023-07-31T02:55:22;7.50;;;3.55;;
32038;SDS011;18549;42.286;22.688;2023-07-31T02:57:48;5.10;;;4.10;;
32038;SDS011;18549;42.286;22.688;2023-07-31T03:00:17;6.32;;;4.00;;
32038;SDS011;18549;42.286;22.688;2023-07-31T03:02:44;10.38;;;4.40;;
32038;SDS011;18549;42.286;22.688;2023-07-31T03:05:10;5.82;;;3.95;;
32038;SDS011;18549;42.286;22.688;2023-07-31T03:07:37;4.15;;;3.67;;
32038;SDS011;18549;42.286;22.688;2023-07-31T03:10:06;4.95;;;4.12;;
32038;SDS011;18549;42.286;22.688;2023-07-31T03:12:33;5.97;;;4.22;;
32038;SDS011;18549;42.286;22.688;2023-07-31T03:15:00;5.78;;;3.80;;
32038;SDS011;18549;42.286;22.688;2023-07-31T03:17:27;10.65;;;4.45;;
32038;SDS011;18549;42.286;22.688;2023-07-31T03:19:54;5.90;;;4.05;;
32038;SDS011;18549;42.286;22.688;2023-07-31T03:22:20;4.60;;;4.07;;
32038;SDS011;18549;42.286;22.688;2023-07-31T03:24:47;6.87;;;3.70;;
32038;SDS011;18549;42.286;22.688;2023-07-31T03:27:15;7.18;;;4.32;;
32038;SDS011;18549;42.286;22.688;2023-07-31T03:29:42;6.55;;;4.72;;
32038;SDS011;18549;42.286;22.688;2023-07-31T03:32:09;5.85;;;4.30;;
32038;SDS011;18549;42.286;22.688;2023-07-31T03:34:35;7.72;;;4.78;;
32038;SDS011;18549;42.286;22.688;2023-07-31T03:37:02;5.93;;;4.00;;
32038;SDS011;18549;42.286;22.688;2023-07-31T03:39:30;12.27;;;5.12;;
32038;SDS011;18549;42.286;22.688;2023-07-31T03:41:56;6.95;;;4.60;;
32038;SDS011;18549;42.286;22.688;2023-07-31T03:44:25;9.30;;;4.95;;
32038;SDS011;18549;42.286;22.688;2023-07-31T03:46:51;8.35;;;4.45;;
32038;SDS011;18549;42.286;22.688;2023-07-31T03:49:18;7.75;;;5.07;;
32038;SDS011;18549;42.286;22.688;2023-07-31T03:51:45;8.35;;;5.43;;
32038;SDS011;18549;42.286;22.688;2023-07-31T03:54:12;8.50;;;5.07;;
32038;SDS011;18549;42.286;22.688;2023-07-31T03:56:39;7.97;;;4.75;;
32038;SDS011;18549;42.286;22.688;2023-07-31T03:59:05;4.82;;;4.20;;
32038;SDS011;18549;42.286;22.688;2023-07-31T04:01:33;11.65;;;5.20;;
32038;SDS011;18549;42.286;22.688;2023-07-31T04:04:00;6.75;;;5.50;;
32038;SDS011;18549;42.286;22.688;2023-07-31T04:06:27;6.87;;;5.22;;
32038;SDS011;18549;42.286;22.688;2023-07-31T04:08:54;15.10;;;5.97;;
32038;SDS011;18549;42.286;22.688;2023-07-31T04:11:20;7.47;;;6.30;;
32038;SDS011;18549;42.286;22.688;2023-07-31T04:13:47;12.98;;;6.20;;
32038;SDS011;18549;42.286;22.688;2023-07-31T04:16:14;8.02;;;5.65;;
32038;SDS011;18549;42.286;22.688;2023-07-31T04:18:42;6.87;;;5.25;;
32038;SDS011;18549;42.286;22.688;2023-07-31T04:21:08;6.80;;;5.10;;
32038;SDS011;18549;42.286;22.688;2023-07-31T04:23:35;4.97;;;4.47;;
32038;SDS011;18549;42.286;22.688;2023-07-31T04:26:02;5.78;;;5.07;;
32038;SDS011;18549;42.286;22.688;2023-07-31T04:28:29;5.95;;;4.85;;
32038;SDS011;18549;42.286;22.688;2023-07-31T04:30:56;8.80;;;6.40;;
32038;SDS011;18549;42.286;22.688;2023-07-31T04:33:23;6.10;;;5.45;;
32038;SDS011;18549;42.286;22.688;2023-07-31T04:35:52;10.20;;;7.03;;
32038;SDS011;18549;42.286;22.688;2023-07-31T04:38:19;10.55;;;6.57;;
32038;SDS011;18549;42.286;22.688;2023-07-31T04:40:46;7.18;;;6.35;;
32038;SDS011;18549;42.286;22.688;2023-07-31T04:43:13;9.10;;;7.95;;
32038;SDS011;18549;42.286;22.688;2023-07-31T04:45:42;20.90;;;7.30;;
32038;SDS011;18549;42.286;22.688;2023-07-31T04:48:09;10.07;;;7.10;;
32038;SDS011;18549;42.286;22.688;2023-07-31T04:50:35;10.50;;;8.30;;
32038;SDS011;18549;42.286;22.688;2023-07-31T04:53:03;10.18;;;7.20;;
32038;SDS011;18549;42.286;22.688;2023-07-31T04:55:30;12.98;;;7.40;;
32038;SDS011;18549;42.286;22.688;2023-07-31T04:57:57;10.45;;;6.68;;
32038;SDS011;18549;42.286;22.688;2023-07-31T05:00:25;10.80;;;7.93;;
32038;SDS011;18549;42.286;22.688;2023-07-31T05:02:51;9.93;;;7.43;;
32038;SDS011;18549;42.286;22.688;2023-07-31T05:05:18;11.35;;;8.93;;
32038;SDS011;18549;42.286;22.688;2023-07-31T05:07:45;10.07;;;9.00;;
32038;SDS011;18549;42.286;22.688;2023-07-31T05:10:13;13.05;;;8.73;;
32038;SDS011;18549;42.286;22.688;2023-07-31T05:12:40;10.32;;;8.55;;
32038;SDS011;18549;42.286;22.688;2023-07-31T05:15:07;10.30;;;8.80;;
32038;SDS011;18549;42.286;22.688;2023-07-31T05:17:34;13.98;;;8.30;;
32038;SDS011;18549;42.286;22.688;2023-07-31T05:20:01;11.95;;;9.70;;
32038;SDS011;18549;42.286;22.688;2023-07-31T05:22:28;12.35;;;9.40;;
32038;SDS011;18549;42.286;22.688;2023-07-31T05:24:55;12.70;;;10.40;;
32038;SDS011;18549;42.286;22.688;2023-07-31T05:27:23;10.38;;;9.35;;
32038;SDS011;18549;42.286;22.688;2023-07-31T05:29:50;14.05;;;10.13;;
32038;SDS011;18549;42.286;22.688;2023-07-31T05:32:16;12.40;;;10.15;;
32038;SDS011;18549;42.286;22.688;2023-07-31T05:34:43;15.35;;;10.50;;
32038;SDS011;18549;42.286;22.688;2023-07-31T05:37:10;20.30;;;10.23;;
32038;SDS011;18549;42.286;22.688;2023-07-31T05:39:37;28.17;;;11.10;;
32038;SDS011;18549;42.286;22.688;2023-07-31T05:42:04;23.48;;;10.93;;
32038;SDS011;18549;42.286;22.688;2023-07-31T05:44:33;20.15;;;10.55;;
32038;SDS011;18549;42.286;22.688;2023-07-31T05:47:00;14.98;;;11.30;;
32038;SDS011;18549;42.286;22.688;2023-07-31T05:49:26;17.62;;;10.50;;
32038;SDS011;18549;42.286;22.688;2023-07-31T05:51:53;18.70;;;11.63;;
32038;SDS011;18549;42.286;22.688;2023-07-31T05:54:20;17.62;;;12.07;;
32038;SDS011;18549;42.286;22.688;2023-07-31T05:56:47;16.95;;;12.05;;
32038;SDS011;18549;42.286;22.688;2023-07-31T05:59:14;19.60;;;12.48;;
32038;SDS011;18549;42.286;22.688;2023-07-31T06:01:43;16.10;;;12.98;;
32038;SDS011;18549;42.286;22.688;2023-07-31T06:04:10;17.23;;;12.90;;
32038;SDS011;18549;42.286;22.688;2023-07-31T06:06:37;16.50;;;12.20;;
32038;SDS011;18549;42.286;22.688;2023-07-31T06:09:03;15.05;;;11.20;;
32038;SDS011;18549;42.286;22.688;2023-07-31T06:11:30;19.15;;;13.35;;
32038;SDS011;18549;42.286;22.688;2023-07-31T06:13:57;16.80;;;14.73;;
32038;SDS011;18549;42.286;22.688;2023-07-31T06:16:24;19.37;;;13.62;;
32038;SDS011;18549;42.286;22.688;2023-07-31T06:18:53;15.73;;;13.13;;
32038;SDS011;18549;42.286;22.688;2023-07-31T06:21:20;17.90;;;14.40;;
32038;SDS011;18549;42.286;22.688;2023-07-31T06:23:47;17.58;;;15.82;;
32038;SDS011;18549;42.286;22.688;2023-07-31T06:26:14;16.00;;;14.20;;
32038;SDS011;18549;42.286;22.688;2023-07-31T06:28:41;19.00;;;15.18;;
32038;SDS011;18549;42.286;22.688;2023-07-31T06:31:08;13.48;;;12.07;;
32038;SDS011;18549;42.286;22.688;2023-07-31T06:33:35;14.70;;;13.20;;
32038;SDS011;18549;42.286;22.688;2023-07-31T06:36:04;16.75;;;14.65;;
32038;SDS011;18549;42.286;22.688;2023-07-31T06:38:30;16.83;;;14.48;;
32038;SDS011;18549;42.286;22.688;2023-07-31T06:40:58;14.25;;;12.75;;
32038;SDS011;18549;42.286;22.688;2023-07-31T06:43:24;15.68;;;14.07;;
32038;SDS011;18549;42.286;22.688;2023-07-31T06:45:51;16.10;;;14.45;;
32038;SDS011;18549;42.286;22.688;2023-07-31T06:48:18;17.52;;;15.13;;
32038;SDS011;18549;42.286;22.688;2023-07-31T06:50:45;15.25;;;13.80;;
32038;SDS011;18549;42.286;22.688;2023-07-31T06:53:13;16.17;;;14.55;;
32038;SDS011;18549;42.286;22.688;2023-07-31T06:55:39;15.52;;;13.93;;
32038;SDS011;18549;42.286;22.688;2023-07-31T06:58:06;20.20;;;13.82;;
32038;SDS011;18549;42.286;22.688;2023-07-31T07:00:33;17.40;;;15.10;;
32038;SDS011;18549;42.286;22.688;2023-07-31T07:02:59;16.50;;;14.85;;
32038;SDS011;18549;42.286;22.688;2023-07-31T07:05:26;15.10;;;13.70;;
32038;SDS011;18549;42.286;22.688;2023-07-31T07:07:53;17.40;;;14.27;;
32038;SDS011;18549;42.286;22.688;2023-07-31T07:10:21;15.93;;;14.15;;
32038;SDS011;18549;42.286;22.688;2023-07-31T07:12:48;15.40;;;14.00;;
32038;SDS011;18549;42.286;22.688;2023-07-31T07:15:15;15.50;;;13.95;;
32038;SDS011;18549;42.286;22.688;2023-07-31T07:17:42;16.23;;;14.60;;
32038;SDS011;18549;42.286;22.688;2023-07-31T07:20:08;14.93;;;13.38;;
32038;SDS011;18549;42.286;22.688;2023-07-31T07:22:35;14.38;;;12.93;;
32038;SDS011;18549;42.286;22.688;2023-07-31T07:25:02;13.35;;;11.43;;
32038;SDS011;18549;42.286;22.688;2023-07-31T07:27:31;12.77;;;11.40;;
32038;SDS011;18549;42.286;22.688;2023-07-31T07:29:58;14.07;;;12.75;;
32038;SDS011;18549;42.286;22.688;2023-07-31T07:32:25;12.25;;;11.05;;
32038;SDS011;18549;42.286;22.688;2023-07-31T07:34:51;11.50;;;10.30;;
32038;SDS011;18549;42.286;22.688;2023-07-31T07:37:18;9.75;;;8.77;;
32038;SDS011;18549;42.286;22.688;2023-07-31T07:39:45;8.85;;;7.75;;
32038;SDS011;18549;42.286;22.688;2023-07-31T07:42:12;9.90;;;8.90;;
32038;SDS011;18549;42.286;22.688;2023-07-31T07:44:40;10.35;;;9.35;;
32038;SDS011;18549;42.286;22.688;2023-07-31T07:47:06;10.90;;;9.75;;
32038;SDS011;18549;42.286;22.688;2023-07-31T07:49:33;9.10;;;8.30;;
32038;SDS011;18549;42.286;22.688;2023-07-31T07:52:01;9.40;;;8.40;;
32038;SDS011;18549;42.286;22.688;2023-07-31T07:54:28;10.07;;;8.20;;
32038;SDS011;18549;42.286;22.688;2023-07-31T07:56:54;8.80;;;7.97;;
32038;SDS011;18549;42.286;22.688;2023-07-31T07:59:21;9.00;;;7.53;;
32038;SDS011;18549;42.286;22.688;2023-07-31T08:01:49;9.68;;;8.68;;
32038;SDS011;18549;42.286;22.688;2023-07-31T08:04:16;8.50;;;7.70;;
32038;SDS011;18549;42.286;22.688;2023-07-31T08:06:43;9.25;;;8.35;;
32038;SDS011;18549;42.286;22.688;2023-07-31T08:09:09;9.40;;;8.45;;
32038;SDS011;18549;42.286;22.688;2023-07-31T08:11:36;9.82;;;8.77;;
32038;SDS011;18549;42.286;22.688;2023-07-31T08:14:03;9.60;;;8.68;;
32038;SDS011;18549;42.286;22.688;2023-07-31T08:16:30;8.05;;;7.35;;
32038;SDS011;18549;42.286;22.688;2023-07-31T08:18:58;9.80;;;8.18;;
32038;SDS011;18549;42.286;22.688;2023-07-31T08:21:24;8.32;;;7.62;;
32038;SDS011;18549;42.286;22.688;2023-07-31T08:23:51;9.57;;;8.15;;
32038;SDS011;18549;42.286;22.688;2023-07-31T08:26:18;9.18;;;8.15;;
32038;SDS011;18549;42.286;22.688;2023-07-31T08:28:46;8.73;;;7.53;;
32038;SDS011;18549;42.286;22.688;2023-07-31T08:31:12;8.57;;;7.35;;
32038;SDS011;18549;42.286;22.688;2023-07-31T08:33:39;7.25;;;6.65;;
32038;SDS011;18549;42.286;22.688;2023-07-31T08:36:07;6.95;;;6.20;;
32038;SDS011;18549;42.286;22.688;2023-07-31T08:38:34;10.07;;;6.37;;
32038;SDS011;18549;42.286;22.688;2023-07-31T08:41:02;5.75;;;5.18;;
32038;SDS011;18549;42.286;22.688;2023-07-31T08:43:29;7.18;;;5.80;;
32038;SDS011;18549;42.286;22.688;2023-07-31T08:45:57;7.22;;;6.43;;
32038;SDS011;18549;42.286;22.688;2023-07-31T08:48:24;9.27;;;6.35;;
32038;SDS011;18549;42.286;22.688;2023-07-31T08:50:52;6.80;;;6.20;;
32038;SDS011;18549;42.286;22.688;2023-07-31T08:53:20;6.95;;;6.35;;
32038;SDS011;18549;42.286;22.688;2023-07-31T08:55:47;6.20;;;5.60;;
32038;SDS011;18549;42.286;22.688;2023-07-31T08:58:15;6.87;;;5.80;;
32038;SDS011;18549;42.286;22.688;2023-07-31T09:00:43;8.52;;;6.25;;
32038;SDS011;18549;42.286;22.688;2023-07-31T09:03:13;6.35;;;5.60;;
32038;SDS011;18549;42.286;22.688;2023-07-31T09:05:42;5.97;;;5.47;;
32038;SDS011;18549;42.286;22.688;2023-07-31T09:08:10;5.00;;;4.60;;
32038;SDS011;18549;42.286;22.688;2023-07-31T09:10:41;9.35;;;5.12;;
32038;SDS011;18549;42.286;22.688;2023-07-31T09:13:08;5.25;;;4.72;;
32038;SDS011;18549;42.286;22.688;2023-07-31T09:15:36;5.32;;;4.78;;
32038;SDS011;18549;42.286;22.688;2023-07-31T09:18:03;4.43;;;3.87;;
32038;SDS011;18549;42.286;22.688;2023-07-31T09:20:32;6.95;;;4.50;;
32038;SDS011;18549;42.286;22.688;2023-07-31T09:23:05;5.03;;;4.10;;
32038;SDS011;18549;42.286;22.688;2023-07-31T09:25:33;4.15;;;3.42;;
32038;SDS011;18549;42.286;22.688;2023-07-31T09:28:02;5.68;;;3.70;;
32038;SDS011;18549;42.286;22.688;2023-07-31T09:30:29;3.92;;;3.30;;
32038;SDS011;18549;42.286;22.688;2023-07-31T09:33:00;3.92;;;3.33;;
32038;SDS011;18549;42.286;22.688;2023-07-31T09:35:28;5.55;;;3.08;;
32038;SDS011;18549;42.286;22.688;2023-07-31T09:37:57;2.65;;;2.45;;
32038;SDS011;18549;42.286;22.688;2023-07-31T09:40:25;9.55;;;2.72;;
32038;SDS011;18549;42.286;22.688;2023-07-31T09:42:54;3.40;;;2.42;;
32038;SDS011;18549;42.286;22.688;2023-07-31T09:45:24;2.90;;;2.50;;
32038;SDS011;18549;42.286;22.688;2023-07-31T09:47:52;3.33;;;2.72;;
32038;SDS011;18549;42.286;22.688;2023-07-31T09:50:20;4.30;;;2.60;;
32038;SDS011;18549;42.286;22.688;2023-07-31T09:52:48;4.75;;;2.87;;
32038;SDS011;18549;42.286;22.688;2023-07-31T09:55:15;2.58;;;2.37;;
32038;SDS011;18549;42.286;22.688;2023-07-31T09:57:43;3.12;;;2.30;;
32038;SDS011;18549;42.286;22.688;2023-07-31T10:00:12;6.62;;;2.42;;
32038;SDS011;18549;42.286;22.688;2023-07-31T10:02:41;2.17;;;1.92;;
32038;SDS011;18549;42.286;22.688;2023-07-31T10:05:12;1.83;;;1.70;;
32038;SDS011;18549;42.286;22.688;2023-07-31T10:07:41;4.68;;;2.35;;
32038;SDS011;18549;42.286;22.688;2023-07-31T10:10:09;3.47;;;3.17;;
32038;SDS011;18549;42.286;22.688;2023-07-31T10:12:37;4.62;;;3.37;;
32038;SDS011;18549;42.286;22.688;2023-07-31T10:15:04;6.95;;;3.22;;
32038;SDS011;18549;42.286;22.688;2023-07-31T10:17:32;6.65;;;2.15;;
32038;SDS011;18549;42.286;22.688;2023-07-31T10:20:02;3.22;;;2.70;;
32038;SDS011;18549;42.286;22.688;2023-07-31T10:22:30;3.90;;;2.37;;
32038;SDS011;18549;42.286;22.688;2023-07-31T10:24:58;2.75;;;2.30;;
32038;SDS011;18549;42.286;22.688;2023-07-31T10:27:25;2.87;;;2.60;;
32038;SDS011;18549;42.286;22.688;2023-07-31T10:29:53;3.35;;;2.67;;
32038;SDS011;18549;42.286;22.688;2023-07-31T10:32:21;5.53;;;3.53;;
32038;SDS011;18549;42.286;22.688;2023-07-31T10:34:49;5.37;;;3.40;;
32038;SDS011;18549;42.286;22.688;2023-07-31T10:37:25;4.25;;;3.15;;
32038;SDS011;18549;42.286;22.688;2023-07-31T10:39:58;4.53;;;4.12;;
32038;SDS011;18549;42.286;22.688;2023-07-31T10:42:32;7.65;;;4.07;;
32038;SDS011;18549;42.286;22.688;2023-07-31T10:45:01;5.65;;;4.72;;
32038;SDS011;18549;42.286;22.688;2023-07-31T10:47:29;4.37;;;3.97;;
32038;SDS011;18549;42.286;22.688;2023-07-31T10:50:12;4.60;;;4.12;;
32038;SDS011;18549;42.286;22.688;2023-07-31T10:52:42;6.95;;;4.00;;
32038;SDS011;18549;42.286;22.688;2023-07-31T10:57:57;8.90;;;4.00;;
32038;SDS011;18549;42.286;22.688;2023-07-31T11:00:25;4.05;;;3.30;;
32038;SDS011;18549;42.286;22.688;2023-07-31T11:02:56;7.80;;;3.97;;
32038;SDS011;18549;42.286;22.688;2023-07-31T11:08:14;9.35;;;3.42;;
32038;SDS011;18549;42.286;22.688;2023-07-31T11:10:42;3.37;;;3.08;;
32038;SDS011;18549;42.286;22.688;2023-07-31T11:13:10;3.50;;;3.20;;
32038;SDS011;18549;42.286;22.688;2023-07-31T11:15:37;5.00;;;2.97;;
32038;SDS011;18549;42.286;22.688;2023-07-31T11:18:03;5.37;;;3.70;;
32038;SDS011;18549;42.286;22.688;2023-07-31T11:20:33;3.85;;;3.25;;
32038;SDS011;18549;42.286;22.688;2023-07-31T11:23:01;5.47;;;3.97;;
32038;SDS011;18549;42.286;22.688;2023-07-31T11:25:30;5.18;;;4.00;;
32038;SDS011;18549;42.286;22.688;2023-07-31T11:27:57;3.85;;;3.33;;
32038;SDS011;18549;42.286;22.688;2023-07-31T11:30:28;6.22;;;4.10;;
32038;SDS011;18549;42.286;22.688;2023-07-31T11:32:55;14.98;;;5.43;;
32038;SDS011;18549;42.286;22.688;2023-07-31T11:35:21;4.50;;;4.07;;
32038;SDS011;18549;42.286;22.688;2023-07-31T11:37:48;5.20;;;4.47;;
32038;SDS011;18549;42.286;22.688;2023-07-31T11:40:15;5.45;;;4.95;;
32038;SDS011;18549;42.286;22.688;2023-07-31T11:42:43;9.05;;;5.22;;
32038;SDS011;18549;42.286;22.688;2023-07-31T11:45:10;5.82;;;5.25;;
32038;SDS011;18549;42.286;22.688;2023-07-31T11:47:37;6.93;;;5.22;;
32038;SDS011;18549;42.286;22.688;2023-07-31T11:50:04;5.90;;;5.40;;
32038;SDS011;18549;42.286;22.688;2023-07-31T11:52:37;5.72;;;5.12;;
32038;SDS011;18549;42.286;22.688;2023-07-31T11:55:05;5.25;;;4.85;;
32038;SDS011;18549;42.286;22.688;2023-07-31T11:57:35;6.05;;;5.45;;
32038;SDS011;18549;42.286;22.688;2023-07-31T12:00:05;6.68;;;6.10;;
32038;SDS011;18549;42.286;22.688;2023-07-31T12:02:34;8.18;;;5.95;;
32038;SDS011;18549;42.286;22.688;2023-07-31T12:05:01;6.82;;;5.55;;
32038;SDS011;18549;42.286;22.688;2023-07-31T12:07:42;6.30;;;5.70;;
32038;SDS011;18549;42.286;22.688;2023-07-31T12:10:09;6.80;;;6.15;;
32038;SDS011;18549;42.286;22.688;2023-07-31T12:12:36;6.22;;;5.72;;
32038;SDS011;18549;42.286;22.688;2023-07-31T12:15:04;9.30;;;6.55;;
32038;SDS011;18549;42.286;22.688;2023-07-31T12:17:40;6.80;;;6.15;;
32038;SDS011;18549;42.286;22.688;2023-07-31T12:20:07;6.87;;;6.18;;
32038;SDS011;18549;42.286;22.688;2023-07-31T12:22:35;6.47;;;5.60;;
32038;SDS011;18549;42.286;22.688;2023-07-31T12:25:02;6.80;;;6.22;;
32038;SDS011;18549;42.286;22.688;2023-07-31T12:27:32;6.87;;;6.15;;
32038;SDS011;18549;42.286;22.688;2023-07-31T12:29:59;6.65;;;6.05;;
32038;SDS011;18549;42.286;22.688;2023-07-31T12:32:29;7.75;;;6.97;;
32038;SDS011;18549;42.286;22.688;2023-07-31T12:34:59;7.15;;;6.55;;
32038;SDS011;18549;42.286;22.688;2023-07-31T12:37:26;8.57;;;7.75;;
32038;SDS011;18549;42.286;22.688;2023-07-31T12:39:53;7.53;;;6.75;;
32038;SDS011;18549;42.286;22.688;2023-07-31T12:42:20;8.90;;;7.70;;
32038;SDS011;18549;42.286;22.688;2023-07-31T12:44:46;8.32;;;7.35;;
32038;SDS011;18549;42.286;22.688;2023-07-31T12:47:13;8.02;;;7.20;;
32038;SDS011;18549;42.286;22.688;2023-07-31T12:49:42;8.82;;;6.80;;
32038;SDS011;18549;42.286;22.688;2023-07-31T12:52:09;8.80;;;6.53;;
32038;SDS011;18549;42.286;22.688;2023-07-31T12:54:35;6.95;;;6.30;;
32038;SDS011;18549;42.286;22.688;2023-07-31T12:57:02;8.30;;;6.37;;
32038;SDS011;18549;42.286;22.688;2023-07-31T12:59:29;9.73;;;6.30;;
32038;SDS011;18549;42.286;22.688;2023-07-31T13:01:56;6.12;;;5.53;;
32038;SDS011;18549;42.286;22.688;2023-07-31T13:04:23;6.07;;;5.57;;
32038;SDS011;18549;42.286;22.688;2023-07-31T13:06:51;8.60;;;5.15;;
32038;SDS011;18549;42.286;22.688;2023-07-31T13:09:17;6.03;;;5.37;;
32038;SDS011;18549;42.286;22.688;2023-07-31T13:11:44;7.78;;;4.72;;
32038;SDS011;18549;42.286;22.688;2023-07-31T13:14:11;16.15;;;6.37;;
32038;SDS011;18549;42.286;22.688;2023-07-31T13:16:37;5.65;;;5.15;;
32038;SDS011;18549;42.286;22.688;2023-07-31T13:19:04;6.53;;;5.93;;
32038;SDS011;18549;42.286;22.688;2023-07-31T13:21:31;6.43;;;5.82;;
32038;SDS011;18549;42.286;22.688;2023-07-31T13:24:02;5.90;;;5.28;;
32038;SDS011;18549;42.286;22.688;2023-07-31T13:26:29;6.25;;;5.70;;
32038;SDS011;18549;42.286;22.688;2023-07-31T13:28:56;6.72;;;5.97;;
32038;SDS011;18549;42.286;22.688;2023-07-31T13:31:23;7.12;;;6.37;;
32038;SDS011;18549;42.286;22.688;2023-07-31T13:33:49;6.75;;;6.15;;
32038;SDS011;18549;42.286;22.688;2023-07-31T13:36:16;7.75;;;6.50;;
32038;SDS011;18549;42.286;22.688;2023-07-31T13:38:43;7.57;;;6.47;;
32038;SDS011;18549;42.286;22.688;2023-07-31T13:41:11;7.20;;;6.55;;
32038;SDS011;18549;42.286;22.688;2023-07-31T13:43:37;7.18;;;6.30;;
32038;SDS011;18549;42.286;22.688;2023-07-31T13:46:03;6.78;;;6.12;;
32038;SDS011;18549;42.286;22.688;2023-07-31T13:48:31;5.82;;;5.32;;
32038;SDS011;18549;42.286;22.688;2023-07-31T13:51:01;6.53;;;5.93;;
32038;SDS011;18549;42.286;22.688;2023-07-31T13:53:27;5.65;;;5.15;;
32038;SDS011;18549;42.286;22.688;2023-07-31T13:55:54;7.40;;;5.35;;
32038;SDS011;18549;42.286;22.688;2023-07-31T13:58:22;6.53;;;5.45;;
32038;SDS011;18549;42.286;22.688;2023-07-31T14:00:49;5.50;;;5.00;;
32038;SDS011;18549;42.286;22.688;2023-07-31T14:03:16;5.70;;;5.15;;
32038;SDS011;18549;42.286;22.688;2023-07-31T14:05:42;5.37;;;4.62;;
32038;SDS011;18549;42.286;22.688;2023-07-31T14:08:09;5.03;;;4.53;;
32038;SDS011;18549;42.286;22.688;2023-07-31T14:10:36;5.12;;;4.62;;
32038;SDS011;18549;42.286;22.688;2023-07-31T14:13:03;6.15;;;4.80;;
32038;SDS011;18549;42.286;22.688;2023-07-31T14:15:31;5.07;;;4.68;;
32038;SDS011;18549;42.286;22.688;2023-07-31T14:18:00;5.03;;;4.30;;
32038;SDS011;18549;42.286;22.688;2023-07-31T14:20:27;5.40;;;4.62;;
32038;SDS011;18549;42.286;22.688;2023-07-31T14:22:54;5.53;;;5.03;;
32038;SDS011;18549;42.286;22.688;2023-07-31T14:25:21;9.75;;;4.93;;
32038;SDS011;18549;42.286;22.688;2023-07-31T14:27:47;4.65;;;4.20;;
32038;SDS011;18549;42.286;22.688;2023-07-31T14:30:14;4.87;;;4.37;;
32038;SDS011;18549;42.286;22.688;2023-07-31T14:32:42;4.70;;;4.30;;
32038;SDS011;18549;42.286;22.688;2023-07-31T14:35:09;6.00;;;4.75;;
32038;SDS011;18549;42.286;22.688;2023-07-31T14:37:36;5.22;;;4.57;;